Latest Weather Observations for Christmas Island

IDW60801

Issued at 11:34 am WST Thursday 17 August 2017 (issued every 30 minutes, with the page automatically refreshed every 10 minutes)

About weather observations | Map of weather stations | Latest weather observations for WA | Other Formats
Station Details ID: 200790 Name: CHRISTMAS ISLAND AERO Lat: -10.45 Lon: 105.69 Height: 261.0 m
Data from the previous 72 hours. | See also: Recent months at Christmas Island
Date/Time
WST
Temp
°C
App
Temp
°C
Dew
Point
°C
Rel
Hum
%
Delta-T
°C
Wind Press
QNH
hPa
Press
MSL
hPa
Rain since
9am
mm
Dir  Spd
km/h
Gust
km/h
Spd
kts
Gust
kts
17/11:30am 25.0 23.9 19.5 71 3.6 ESE 24 35 13 19 1014.2 - 0.0
17/11:00am 24.5 23.7 19.2 72 3.4 ESE 22 32 12 17 1014.6 - 0.0
17/10:30am 25.5 24.3 19.2 68 4.1 ESE 24 33 13 18 1014.8 - 0.0
17/10:00am 24.9 23.4 18.5 67 4.1 ESE 24 33 13 18 1014.6 1013.2 0.0
17/09:30am 24.3 22.9 18.8 71 3.5 ESE 24 39 13 21 1014.5 - 0.0
17/09:00am 24.3 23.6 19.5 74 3.1 ESE 22 39 12 21 1014.2 - 0.0
17/08:30am 23.5 22.9 19.8 80 2.4 ESE 22 30 12 16 1014.0 - 0.0
17/08:00am 23.4 22.3 19.5 79 2.5 ESE 24 35 13 19 1013.8 - 0.0
17/07:30am 23.1 22.5 19.7 81 2.2 ESE 22 35 12 19 1013.5 - 0.0
17/07:00am 22.9 22.5 19.3 80 2.3 ESE 20 32 11 17 1013.4 1012.0 0.0
17/06:30am 23.0 23.0 19.8 82 2.1 ESE 19 32 10 17 1013.2 - 0.0
17/06:00am 22.9 22.0 19.0 78 2.5 ESE 22 33 12 18 1013.1 - 0.0
17/05:30am 23.0 22.3 19.6 81 2.2 ESE 22 32 12 17 1013.0 - 0.0
17/05:00am 22.9 21.7 19.2 79 2.4 ESE 24 35 13 19 1013.0 - 0.0
17/04:30am 23.0 22.1 19.1 78 2.5 ESE 22 33 12 18 1012.9 - 0.0
17/04:00am 23.0 22.5 19.9 83 2.0 ESE 22 32 12 17 1013.0 1011.6 0.0
17/03:30am 23.1 22.6 19.9 82 2.1 SE 22 30 12 16 1013.1 - 0.0
17/03:00am 23.1 21.5 19.2 79 2.5 ESE 26 37 14 20 1013.5 - 0.0
17/02:30am 23.1 23.0 20.0 83 2.0 SE 20 32 11 17 1014.0 - 0.0
17/02:00am 23.1 23.1 19.7 81 2.2 SE 19 26 10 14 1014.4 - 0.0
17/01:30am 23.1 23.1 19.7 81 2.2 ESE 19 28 10 15 1014.6 - 0.0
17/01:00am 23.2 23.1 19.5 80 2.4 ESE 19 26 10 14 1015.1 1013.7 0.0
17/12:30am 23.2 22.8 19.3 79 2.5 ESE 20 28 11 15 1015.2 - 0.0
17/12:00am 23.2 22.8 19.3 79 2.5 ESE 20 28 11 15 1015.3 - 0.0
 
Date/Time
WST
Temp
°C
App
Temp
°C
Dew
Point
°C
Rel
Hum
%
Delta-T
°C
Wind Press
QNH
hPa
Press
MSL
hPa
Rain since
9am
mm
Dir  Spd
km/h
Gust
km/h
Spd
kts
Gust
kts
16/11:30pm 23.5 23.3 19.8 80 2.4 ESE 20 32 11 17 1015.5 - 0.0
16/11:00pm 23.4 23.1 19.5 79 2.5 ESE 20 30 11 16 1015.6 - 0.0
16/10:30pm 23.5 23.2 19.5 78 2.6 ESE 20 35 11 19 1015.4 - 0.0
16/10:00pm 23.3 22.3 18.9 76 2.8 ESE 22 33 12 18 1015.3 1013.9 0.0
16/09:30pm 23.3 23.4 19.9 81 2.2 ESE 19 30 10 16 1015.1 - 0.0
16/09:00pm 23.6 23.5 19.6 78 2.6 SE 19 28 10 15 1014.9 - 0.0
16/08:30pm 23.5 23.4 19.5 78 2.6 ESE 19 26 10 14 1014.6 - 0.0
16/08:00pm 23.5 23.1 19.0 76 2.9 SE 19 30 10 16 1014.4 - 0.0
16/07:30pm 23.6 22.8 19.3 77 2.8 ESE 22 33 12 18 1013.9 - 0.0
16/07:00pm 23.8 23.1 19.6 77 2.7 SE 22 32 12 17 1013.7 1012.3 0.0
16/06:30pm 24.0 23.7 19.5 76 2.9 ESE 20 33 11 18 1013.1 - 0.0
16/06:00pm 24.2 23.7 19.1 73 3.3 ESE 20 32 11 17 1012.8 - 0.0
16/05:30pm 24.2 23.3 19.1 73 3.3 ESE 22 33 12 18 1012.5 - 0.0
16/05:00pm 24.3 23.1 19.2 73 3.3 ESE 24 39 13 21 1012.3 - 0.0
16/04:30pm 25.4 23.7 19.7 70 3.7 ESE 28 39 15 21 1011.9 - 0.0
16/04:00pm 24.7 23.1 20.1 75 3.0 ESE 28 43 15 23 1011.9 1010.5 0.0
16/03:30pm 25.5 24.3 20.0 71 3.6 ESE 26 43 14 23 1012.2 - 0.0
16/03:00pm 24.7 23.2 20.3 76 2.9 ESE 28 39 15 21 1012.2 - 0.0
16/02:30pm 25.7 24.1 20.1 71 3.7 ESE 28 39 15 21 1012.4 - 0.0
16/02:00pm 25.3 23.8 20.3 74 3.3 ESE 28 39 15 21 1012.8 - 0.0
16/01:30pm 25.1 23.4 19.9 73 3.4 ESE 28 39 15 21 1013.1 - 0.0
16/01:00pm 24.9 23.2 19.8 73 3.3 ESE 28 41 15 22 1013.4 1012.0 0.0
16/12:30pm 24.8 22.8 19.9 74 3.2 ESE 30 44 16 24 1013.9 - 0.0
16/12:00pm 25.5 24.0 20.2 72 3.5 ESE 28 39 15 21 1014.4 - 0.0
16/11:30am 24.6 23.1 19.5 73 3.3 ESE 26 37 14 20 1014.8 - 0.0
16/11:00am 24.8 23.0 19.6 73 3.4 ESE 28 39 15 21 1015.2 - 0.0
16/10:30am 25.0 23.2 19.6 72 3.5 ESE 28 37 15 20 1015.4 - 0.0
16/10:00am 25.4 24.1 19.9 71 3.6 ESE 26 37 14 20 1015.6 1014.2 0.0
16/09:30am 24.3 23.5 20.0 77 2.8 ESE 24 35 13 19 1015.6 - 0.0
16/09:10am 24.6 23.7 19.8 74 3.1 ESE 24 35 13 19 1015.6 - 0.0
16/09:00am 24.2 23.8 20.1 78 2.7 SE 22 32 12 17 1015.5 - 0.0
16/08:38am 23.9 23.3 19.7 77 2.7 ESE 22 33 12 18 1015.4 - 0.0
16/08:30am 24.1 23.7 20.1 78 2.6 ESE 22 32 12 17 1015.3 - 0.0
16/08:00am 23.4 22.8 19.7 80 2.4 ESE 22 35 12 19 1015.2 - 0.0
16/07:30am 23.2 22.5 19.5 80 2.4 ESE 22 33 12 18 1015.0 - 0.0
16/07:00am 23.0 22.5 19.9 83 2.0 SE 22 32 12 17 1014.8 1013.4 0.0
16/06:30am 22.9 23.0 20.0 84 1.9 SE 19 28 10 15 1014.6 - 0.0
16/06:29am 22.9 23.1 20.1 84 1.8 SE 19 28 10 15 1014.6 - 0.0
16/06:00am 23.0 23.0 19.8 82 2.1 SE 19 28 10 15 1014.4 - 0.0
16/05:30am 23.1 23.3 20.2 84 1.9 ESE 19 32 10 17 1014.3 - 0.0
16/05:00am 23.0 22.7 19.6 81 2.2 ESE 20 26 11 14 1014.4 - 0.0
16/04:30am 23.2 22.5 19.6 80 2.3 ESE 22 32 12 17 1014.6 - 0.0
16/04:23am 23.3 22.6 19.4 79 2.5 ESE 22 30 12 16 1014.6 - 0.0
16/04:00am 23.2 22.9 19.6 80 2.3 ESE 20 26 11 14 1014.7 1013.3 0.0
16/03:54am 23.2 23.2 19.8 81 2.2 SE 19 28 10 15 1014.7 - 0.0
16/03:36am 23.2 23.3 20.0 82 2.1 SE 19 30 10 16 1014.9 - 0.0
16/03:34am 23.2 23.2 19.8 81 2.2 SE 19 30 10 16 1014.9 - 0.0
16/03:30am 23.2 23.0 19.8 81 2.2 SE 20 30 11 16 1015.0 - 0.0
16/03:00am 23.4 23.7 20.5 84 1.9 ESE 19 32 10 17 1015.3 - 0.0
16/02:56am 23.4 23.7 20.3 83 2.0 SE 19 32 10 17 - - 0.0
16/02:30am 23.4 24.3 20.8 85 1.7 SE 17 24 9 13 1015.2 - 0.0
16/02:14am 23.4 23.8 20.7 85 1.8 SE 19 28 10 15 1015.2 - 0.0
16/02:00am 23.5 23.8 20.4 83 2.0 ESE 19 28 10 15 1015.3 - 0.0
16/01:30am 23.5 23.8 20.3 82 2.1 ESE 19 28 10 15 1015.5 - 0.0
16/01:00am 23.6 24.2 21.0 85 1.7 ESE 19 24 10 13 1015.6 1014.2 0.0
16/12:51am 23.5 23.7 20.6 84 1.9 ESE 20 28 11 15 1015.5 - 0.0
16/12:30am 23.5 23.1 20.1 81 2.2 ESE 22 32 12 17 1015.6 - 0.0
16/12:00am 23.5 23.1 20.1 81 2.2 ESE 22 32 12 17 1015.8 - 0.0
 
Date/Time
WST
Temp
°C
App
Temp
°C
Dew
Point
°C
Rel
Hum
%
Delta-T
°C
Wind Press
QNH
hPa
Press
MSL
hPa
Rain since
9am
mm
Dir  Spd
km/h
Gust
km/h
Spd
kts
Gust
kts
15/11:30pm 23.6 23.6 20.2 81 2.2 ESE 20 32 11 17 1015.9 - 0.0
15/11:00pm 23.8 23.9 20.4 81 2.2 ESE 20 30 11 16 1015.9 - 0.0
15/10:30pm 23.8 24.1 20.8 83 2.0 ESE 20 28 11 15 1015.9 - 0.0
15/10:00pm 23.7 23.5 20.5 82 2.1 ESE 22 30 12 16 1015.9 1014.5 0.0
15/09:30pm 23.8 23.9 20.4 81 2.2 ESE 20 32 11 17 1015.7 - 0.0
15/09:00pm 23.7 24.1 20.7 83 2.0 ESE 19 26 10 14 1015.3 - 0.0
15/08:48pm 23.7 23.9 20.5 82 2.1 ESE 20 30 11 16 1015.1 - 0.0
15/08:44pm 23.8 24.2 20.9 84 1.9 ESE 20 32 11 17 1015.0 - 0.0
15/08:30pm 23.8 23.5 20.4 81 2.2 ESE 22 33 12 18 1014.9 - 0.0
15/08:00pm 24.0 24.4 21.0 83 2.0 ESE 20 32 11 17 1014.5 - 0.0
15/07:59pm 24.0 24.4 21.0 83 2.0 ESE 20 30 11 16 - - 0.0
15/07:43pm 23.8 24.1 20.8 83 2.0 SE 20 28 11 15 1014.3 - 0.0
15/07:30pm 23.9 23.9 21.0 84 1.9 SE 22 32 12 17 1014.2 - 0.0
15/07:00pm 23.9 23.8 20.7 82 2.1 SE 22 35 12 19 1013.9 1012.5 0.0
15/06:30pm 24.0 24.0 21.0 83 2.0 SE 22 32 12 17 1013.7 - 0.0
15/06:00pm 24.1 23.7 20.9 82 2.1 SE 24 35 13 19 1013.7 - 0.0
15/05:30pm 24.3 24.2 20.7 80 2.4 ESE 22 30 12 16 1013.5 - 0.0
15/05:00pm 24.4 24.4 20.9 81 2.3 ESE 22 30 12 16 1013.4 - 0.0
15/04:30pm 24.4 24.9 21.1 82 2.2 SE 20 32 11 17 1013.5 - 0.0
15/04:00pm 24.9 24.1 20.8 78 2.7 ESE 26 35 14 19 1013.4 1012.0 0.0
15/03:30pm 25.3 24.9 20.9 76 2.9 ESE 24 32 13 17 1013.6 - 0.0
15/03:00pm 25.2 24.9 21.1 78 2.7 ESE 24 35 13 19 1013.7 - 0.0
15/02:52pm 25.6 25.2 20.9 75 3.1 ESE 24 33 13 18 - - 0.0
15/02:30pm 25.7 25.0 21.0 75 3.1 ESE 26 35 14 19 1014.1 - 0.0
15/02:26pm 25.5 24.7 20.8 75 3.1 ESE 26 35 14 19 1014.2 - 0.0
15/02:00pm 25.6 25.0 21.3 77 2.9 ESE 26 33 14 18 1014.6 - 0.0
15/01:30pm 25.0 24.7 21.1 79 2.6 SE 24 37 13 20 1015.0 - 0.0
15/01:00pm 25.8 25.6 21.3 76 3.0 ESE 24 35 13 19 1015.4 1014.0 0.0
15/12:37pm 25.3 24.5 20.9 76 2.9 ESE 26 35 14 19 1015.8 - 0.0
15/12:33pm 26.0 25.6 21.0 74 3.3 ESE 24 33 13 18 1015.8 - 0.0
15/12:30pm 26.0 25.6 20.9 73 3.4 ESE 24 33 13 18 1015.9 - 0.0
15/12:00pm 24.9 23.8 21.0 79 2.6 ESE 28 39 15 21 1016.4 - 0.0
15/11:54am 25.1 24.4 21.0 78 2.7 ESE 26 39 14 21 1016.5 - 0.0
15/11:30am 25.2 24.5 21.0 77 2.8 SE 26 35 14 19 1016.9 - 0.0
15/11:29am 24.9 24.1 20.8 78 2.7 SE 26 35 14 19 1016.9 - 0.0
15/11:00am 25.3 24.1 20.9 76 2.9 SE 28 35 15 19 1017.2 - 0.0
15/10:50am 25.6 24.9 21.1 76 3.0 ESE 26 41 14 22 1017.3 - 0.0
15/10:31am 25.2 24.5 21.1 78 2.7 ESE 26 37 14 20 1017.5 - 0.0
15/10:30am 25.2 24.5 21.0 77 2.8 ESE 26 37 14 20 1017.5 - 0.0
15/10:15am 25.1 24.2 20.7 76 2.9 ESE 26 35 14 19 - - 0.0
15/10:00am 25.1 24.5 21.2 79 2.6 ESE 26 35 14 19 1017.4 1016.0 0.0
15/09:30am 24.7 23.8 20.6 78 2.7 ESE 26 39 14 21 1017.2 - 0.0
15/09:00am 24.6 23.8 20.8 79 2.5 ESE 26 37 14 20 1017.1 - 0.0
15/08:30am 24.1 23.3 20.8 82 2.2 ESE 26 35 14 19 1016.9 - 0.0
15/08:17am 24.5 23.7 20.9 80 2.4 ESE 26 37 14 20 1016.6 - 0.0
15/08:13am 24.2 23.3 20.6 80 2.4 ESE 26 37 14 20 1016.6 - 0.0
15/08:00am 23.9 23.0 20.7 82 2.1 ESE 26 39 14 21 1016.5 - 0.0
15/07:48am 23.8 22.9 20.6 82 2.1 ESE 26 37 14 20 1016.5 - 0.0
15/07:34am 23.6 23.0 21.2 86 1.6 ESE 26 35 14 19 1016.4 - 0.0
15/07:30am 23.5 22.7 20.9 85 1.7 ESE 26 35 14 19 1016.4 - 0.0
15/07:16am 23.5 22.9 21.2 87 1.5 SE 26 41 14 22 1016.3 - 0.0
15/07:00am 23.4 23.0 21.0 86 1.6 ESE 24 35 13 19 1016.2 1014.7 0.0
15/06:59am 23.4 22.9 20.8 85 1.7 ESE 24 35 13 19 1016.2 - 0.0
15/06:30am 23.4 23.3 21.4 88 1.3 ESE 24 32 13 17 1015.9 - 0.0
15/06:00am 23.4 23.2 21.3 88 1.4 SE 24 35 13 19 1015.7 - 0.0
15/05:30am 23.4 24.1 21.6 90 1.2 SE 20 30 11 16 1015.6 - 0.0
15/05:06am 23.3 23.9 21.3 88 1.3 SE 20 28 11 15 - - 0.0
15/05:00am 23.3 23.9 21.3 88 1.3 SE 20 28 11 15 1015.6 - 0.0
15/04:30am 23.4 23.2 21.3 88 1.4 SE 24 33 13 18 1015.5 - 0.0
15/04:00am 23.5 23.7 21.4 88 1.4 ESE 22 32 12 17 1015.4 1014.0 0.0
15/03:30am 23.5 24.3 21.7 90 1.2 ESE 20 30 11 16 1015.3 - 0.0
15/03:29am 23.5 24.3 21.7 90 1.2 ESE 20 30 11 16 1015.3 - 0.0
15/03:08am 23.5 23.7 21.4 88 1.4 ESE 22 35 12 19 - - 0.0
15/03:00am 23.6 24.0 21.7 89 1.3 SE 22 32 12 17 1015.4 - 0.0
15/02:30am 23.6 23.6 21.7 89 1.3 ESE 24 32 13 17 1015.6 - 0.0
15/02:00am 23.5 24.4 21.9 91 1.1 SE 20 28 11 15 1015.8 - 0.0
15/01:30am 23.5 24.1 21.4 88 1.4 SE 20 28 11 15 1016.1 - 0.0
15/01:00am 23.6 24.4 21.8 90 1.2 SE 20 30 11 16 1016.2 1014.7 0.0
15/12:30am 23.7 24.6 21.6 88 1.4 ESE 19 28 10 15 1016.4 - 0.0
15/12:00am 23.7 24.3 21.4 87 1.5 SE 20 32 11 17 1016.6 - 0.0
 
Date/Time
WST
Temp
°C
App
Temp
°C
Dew
Point
°C
Rel
Hum
%
Delta-T
°C
Wind Press
QNH
hPa
Press
MSL
hPa
Rain since
9am
mm
Dir  Spd
km/h
Gust
km/h
Spd
kts
Gust
kts
14/11:30pm 23.6 24.2 21.3 87 1.5 SE 20 28 11 15 1016.6 - 0.0
14/11:00pm 23.6 24.3 21.5 88 1.4 SE 20 32 11 17 1016.7 - 0.0
14/10:30pm 23.7 24.4 21.6 88 1.4 ESE 20 26 11 14 1016.8 - 0.0
14/10:00pm 23.8 24.9 21.9 89 1.3 ESE 19 28 10 15 1016.5 1015.1 0.0
14/09:37pm 23.9 24.9 21.8 88 1.4 ESE 19 28 10 15 1016.4 - 0.0
14/09:35pm 23.8 24.8 21.7 88 1.4 ESE 19 28 10 15 1016.4 - 0.0
14/09:30pm 23.7 24.6 21.6 88 1.4 ESE 19 28 10 15 1016.4 - 0.0
14/09:00pm 23.9 24.7 21.8 88 1.4 ESE 20 28 11 15 1016.3 - 0.0
14/08:30pm 24.0 24.8 21.4 85 1.7 ESE 19 24 10 13 1016.1 - 0.0
14/08:00pm 24.0 25.1 21.9 88 1.4 ESE 19 24 10 13 1015.6 - 0.0
14/07:30pm 24.0 25.0 21.8 87 1.5 ESE 19 28 10 15 1015.2 - 0.0
14/07:00pm 23.9 25.5 21.5 86 1.6 ESE 15 22 8 12 1014.9 1013.5 0.0
14/06:30pm 24.4 25.3 21.6 84 1.9 E 19 24 10 13 1014.8 - 0.0
14/06:29pm 24.3 25.2 21.6 85 1.8 ESE 19 26 10 14 1014.8 - 0.0
14/06:26pm 24.2 24.8 21.3 84 1.9 ESE 20 28 11 15 1014.7 - 0.0
14/06:00pm 24.6 25.3 21.5 83 2.1 ESE 20 30 11 16 1014.6 - 0.0
14/05:30pm 24.8 25.7 21.5 82 2.2 E 19 30 10 16 1014.5 - 0.0
14/05:00pm 25.3 26.3 21.7 80 2.4 E 19 28 10 15 1014.2 - 0.0
14/04:30pm 25.3 26.2 21.6 80 2.5 E 19 32 10 17 1014.0 - 0.0
14/04:12pm 25.2 25.6 21.8 81 2.3 E 22 32 12 17 - - 0.0
14/04:00pm 25.2 25.7 21.9 82 2.2 ESE 22 30 12 16 1014.0 1012.6 0.0
14/03:33pm 25.5 25.8 21.6 79 2.6 ESE 22 28 12 15 1014.1 - 0.0
14/03:30pm 25.5 25.9 21.8 80 2.5 ESE 22 28 12 15 1014.1 - 0.0
14/03:10pm 25.9 25.5 21.7 77 2.8 ESE 26 33 14 18 1014.2 - 0.0
14/03:00pm 25.9 26.3 21.7 77 2.8 ESE 22 32 12 17 1014.3 - 0.0
14/02:30pm 25.4 25.3 21.5 79 2.6 ESE 24 35 13 19 1014.6 - 0.0
14/02:00pm 25.9 25.5 21.7 77 2.8 ESE 26 35 14 19 1015.0 - 0.0
14/01:30pm 26.1 25.6 21.5 76 3.1 ESE 26 35 14 19 1015.3 - 0.0
14/01:12pm 26.2 26.1 22.2 78 2.7 ESE 26 35 14 19 1015.6 - 0.0
14/01:00pm 25.8 25.4 21.6 77 2.8 ESE 26 37 14 20 1015.7 1014.3 0.0

Other Formats:

Comma delimited format used in spreadsheet applications
http://www.bom.gov.au/fwo/IDW60801/IDW60801.96995.axf

JavaScript Object Notation format (JSON) in row-major order
http://www.bom.gov.au/fwo/IDW60801/IDW60801.96995.json